createdAt,value
2022-08-03T00:00:36.798Z,98487.03
2022-08-03T00:03:06.213Z,98487.03
2022-08-03T00:05:35.839Z,98480.69
2022-08-03T00:08:04.756Z,98488.84
2022-08-03T00:10:35.174Z,98485.94
2022-08-03T00:13:03.383Z,98481.84
2022-08-03T00:15:31.466Z,98476.06
2022-08-03T00:17:59.867Z,98476.06
2022-08-03T00:20:28.119Z,98474.44
2022-08-03T00:22:58.481Z,98483.84
2022-08-03T00:25:27.432Z,98478.53
2022-08-03T00:27:55.749Z,98476.81
2022-08-03T00:30:24.152Z,98484.03
2022-08-03T00:32:58.216Z,98487.03
2022-08-03T00:35:46.541Z,98488.22
2022-08-03T00:38:18.012Z,98479.78
2022-08-03T00:40:46.238Z,98484.75
2022-08-03T00:43:14.521Z,98485.56
2022-08-03T00:45:44.844Z,98483.34
2022-08-03T00:48:19.798Z,98483.03
2022-08-03T00:51:02.262Z,98485.97
2022-08-03T00:53:32.592Z,98490.16
2022-08-03T00:56:00.824Z,98490.88
2022-08-03T00:58:29.392Z,98482.72
2022-08-03T01:00:57.662Z,98481.03
2022-08-03T01:03:25.927Z,98487.03
2022-08-03T01:05:57.858Z,98489.34
2022-08-03T01:08:36.756Z,98483.84
2022-08-03T01:11:10.040Z,98486.16
2022-08-03T01:14:01.243Z,98488.66
2022-08-03T01:16:37.159Z,98489.84
2022-08-03T01:19:17.244Z,98496.19
2022-08-03T01:21:57.210Z,98487.22
2022-08-03T01:24:36.911Z,98486.88
2022-08-03T01:27:12.121Z,98492.78
2022-08-03T01:29:53.755Z,98494.78
2022-08-03T01:32:59.658Z,98497.81
2022-08-03T01:35:18.764Z,98481.81
2022-08-03T01:37:52.089Z,98491.91
2022-08-03T01:40:22.259Z,98489.56
2022-08-03T01:42:51.984Z,98489.16
2022-08-03T01:45:22.128Z,98488.44
2022-08-03T01:47:51.068Z,98478.66
2022-08-03T01:50:22.529Z,98486.09
2022-08-03T01:52:51.848Z,98479.22
2022-08-03T01:55:20.894Z,98485.00
2022-08-03T01:58:04.827Z,98479.59
2022-08-03T02:00:37.745Z,98471.84
2022-08-03T02:03:07.478Z,98476.38
2022-08-03T02:05:36.928Z,98478.41
2022-08-03T02:08:06.575Z,98472.25
2022-08-03T02:10:36.890Z,98466.69
2022-08-03T02:13:06.865Z,98470.34
2022-08-03T02:15:37.424Z,98477.69
2022-08-03T02:18:07.581Z,98469.59
2022-08-03T02:20:38.002Z,98469.03
2022-08-03T02:23:06.936Z,98472.53
2022-08-03T02:25:36.505Z,98465.81
2022-08-03T02:28:08.641Z,98468.41
2022-08-03T02:30:39.957Z,98470.09
2022-08-03T02:33:12.456Z,98474.56
2022-08-03T02:35:41.418Z,98475.22
2022-08-03T02:38:11.614Z,98475.75
2022-08-03T02:40:40.360Z,98471.34
2022-08-03T02:43:11.904Z,98478.63
2022-08-03T02:45:45.989Z,98480.69
2022-08-03T02:48:17.586Z,98474.97
2022-08-03T02:50:46.583Z,98481.19
2022-08-03T02:53:15.493Z,98475.66
2022-08-03T02:55:45.731Z,98478.13
2022-08-03T02:58:15.395Z,98484.16
2022-08-03T03:00:45.668Z,98488.78
2022-08-03T03:03:14.398Z,98484.47
2022-08-03T03:05:55.414Z,98488.50
2022-08-03T03:08:28.830Z,98481.50
2022-08-03T03:10:58.638Z,98487.59
2022-08-03T03:13:28.647Z,98487.44
2022-08-03T03:16:01.708Z,98486.59
2022-08-03T03:18:30.536Z,98487.63
2022-08-03T03:20:59.424Z,98486.28
2022-08-03T03:23:28.262Z,98495.78
2022-08-03T03:25:58.700Z,98497.47
2022-08-03T03:28:27.132Z,98492.16
2022-08-03T03:30:55.582Z,98497.25
2022-08-03T03:33:28.035Z,98504.56
2022-08-03T03:35:56.996Z,98498.38
2022-08-03T03:38:25.522Z,98502.28
2022-08-03T03:40:53.806Z,98504.88
2022-08-03T03:43:24.748Z,98503.19
2022-08-03T03:45:54.115Z,98498.22
2022-08-03T03:48:22.504Z,98501.47
2022-08-03T03:50:52.358Z,98498.78
2022-08-03T03:53:20.993Z,98497.91
2022-08-03T03:55:58.975Z,98506.09
2022-08-03T03:58:32.938Z,98509.59
2022-08-03T04:01:01.499Z,98514.44
2022-08-03T04:03:29.985Z,98513.75
2022-08-03T04:06:17.825Z,98516.72
2022-08-03T04:09:15.705Z,98517.09
2022-08-03T04:11:50.424Z,98512.63
2022-08-03T04:14:21.240Z,98516.25
2022-08-03T04:16:53.610Z,98517.16
2022-08-03T04:19:26.920Z,98518.31
2022-08-03T04:22:00.823Z,98520.38
2022-08-03T04:24:34.328Z,98521.22
2022-08-03T04:27:04.336Z,98527.69
2022-08-03T04:29:35.061Z,98523.31
2022-08-03T04:32:07.190Z,98531.53
2022-08-03T04:34:35.404Z,98536.19
2022-08-03T04:37:11.528Z,98532.75
2022-08-03T04:39:40.779Z,98533.53
2022-08-03T04:42:10.285Z,98535.38
2022-08-03T04:44:40.628Z,98537.13
2022-08-03T04:47:09.646Z,98544.06
2022-08-03T04:49:38.596Z,98541.56
2022-08-03T04:52:10.114Z,98545.19
2022-08-03T04:54:42.623Z,98532.38
2022-08-03T04:57:22.946Z,98527.59
2022-08-03T05:00:01.477Z,98529.81
2022-08-03T05:02:31.272Z,98536.13
2022-08-03T05:05:00.126Z,98525.53
2022-08-03T05:07:35.738Z,98530.59
2022-08-03T05:10:16.157Z,98542.44
2022-08-03T05:12:46.817Z,98542.00
2022-08-03T05:15:16.223Z,98531.56
2022-08-03T05:17:44.675Z,98539.28
2022-08-03T05:20:13.180Z,98530.22
2022-08-03T05:22:46.279Z,98530.38
2022-08-03T05:25:17.328Z,98538.47
2022-08-03T05:27:48.583Z,98533.84
2022-08-03T05:30:30.885Z,98528.53
2022-08-03T05:33:03.982Z,98535.97
2022-08-03T05:36:02.171Z,98536.81
2022-08-03T05:38:23.986Z,98536.38
2022-08-03T05:41:20.596Z,98541.06
2022-08-03T05:43:45.495Z,98538.66
2022-08-03T05:46:13.715Z,98543.47
2022-08-03T05:48:42.224Z,98539.97
2022-08-03T05:51:12.074Z,98544.03
2022-08-03T05:53:42.297Z,98545.81
2022-08-03T05:56:14.295Z,98553.00
2022-08-03T05:58:45.365Z,98543.44
2022-08-03T06:01:13.852Z,98533.22
2022-08-03T06:03:42.282Z,98542.38
2022-08-03T06:06:11.855Z,98550.78
2022-08-03T06:08:41.905Z,98548.22
2022-08-03T06:11:10.137Z,98555.28
2022-08-03T06:13:38.550Z,98542.09
2022-08-03T06:16:07.205Z,98544.44
2022-08-03T06:18:35.539Z,98547.97
2022-08-03T06:21:14.195Z,98552.91
2022-08-03T06:23:54.764Z,98554.50
2022-08-03T06:26:25.353Z,98553.13
2022-08-03T06:28:54.659Z,98561.28
2022-08-03T06:31:33.158Z,98555.00
2022-08-03T06:34:32.575Z,98562.94
2022-08-03T06:36:52.891Z,98566.22
2022-08-03T06:39:24.450Z,98562.06
2022-08-03T06:41:54.241Z,98559.41
2022-08-03T06:44:22.681Z,98558.22
2022-08-03T06:46:51.925Z,98561.34
2022-08-03T06:49:20.281Z,98564.75
2022-08-03T06:52:03.491Z,98570.88
2022-08-03T06:54:34.602Z,98580.28
2022-08-03T06:57:03.823Z,98567.44
2022-08-03T07:00:07.971Z,98562.69
2022-08-03T07:02:20.685Z,98571.13
2022-08-03T07:04:48.975Z,98570.41
2022-08-03T07:07:17.546Z,98562.81
2022-08-03T07:09:57.519Z,98564.19
2022-08-03T07:12:30.181Z,98565.72
2022-08-03T07:15:02.642Z,98559.88
2022-08-03T07:17:32.519Z,98557.34
2022-08-03T07:20:01.532Z,98550.44
2022-08-03T07:22:29.783Z,98557.72
2022-08-03T07:24:59.775Z,98553.09
2022-08-03T07:27:29.436Z,98558.16
2022-08-03T07:29:58.124Z,98560.16
2022-08-03T07:32:26.495Z,98557.38
2022-08-03T07:35:00.374Z,98559.06
2022-08-03T07:37:29.609Z,98555.88
2022-08-03T07:39:59.563Z,98558.09
2022-08-03T07:42:28.545Z,98555.72
2022-08-03T07:44:57.189Z,98562.28
2022-08-03T07:47:34.866Z,98551.31
2022-08-03T07:50:05.567Z,98553.97
2022-08-03T07:52:50.839Z,98556.78
2022-08-03T07:55:21.844Z,98564.19
2022-08-03T07:58:01.319Z,98558.13
2022-08-03T08:00:29.582Z,98552.16
2022-08-03T08:02:57.966Z,98559.78
2022-08-03T08:05:26.143Z,98555.06
2022-08-03T08:07:54.267Z,98571.28
2022-08-03T08:10:24.117Z,98561.94
2022-08-03T08:12:52.205Z,98563.22
2022-08-03T08:15:20.340Z,98561.75
2022-08-03T08:17:51.065Z,98565.81
2022-08-03T08:20:28.452Z,98560.03
2022-08-03T08:23:02.053Z,98558.97
2022-08-03T08:25:34.014Z,98554.09
2022-08-03T08:28:28.994Z,98557.03
2022-08-03T08:30:52.653Z,98553.41
2022-08-03T08:33:22.816Z,98547.97
2022-08-03T08:35:53.208Z,98557.44
2022-08-03T08:38:21.667Z,98551.78
2022-08-03T08:40:52.062Z,98551.72
2022-08-03T08:43:20.249Z,98542.03
2022-08-03T08:45:50.819Z,98527.59
2022-08-03T08:48:22.235Z,98539.97
2022-08-03T08:50:54.176Z,98544.44
2022-08-03T08:53:27.180Z,98541.84
2022-08-03T08:56:01.459Z,98549.59
2022-08-03T08:58:36.678Z,98557.56
2022-08-03T09:01:05.409Z,98539.72
2022-08-03T09:03:35.634Z,98532.31
2022-08-03T09:06:04.640Z,98533.97
2022-08-03T09:08:34.403Z,98522.72
2022-08-03T09:11:03.915Z,98525.84
2022-08-03T09:13:32.127Z,98520.38
2022-08-03T09:16:16.826Z,98512.16
2022-08-03T09:18:47.418Z,98517.44
2022-08-03T09:21:32.586Z,98509.22
2022-08-03T09:24:05.885Z,98507.13
2022-08-03T09:26:38.731Z,98505.44
2022-08-03T09:29:14.343Z,98505.59
2022-08-03T09:31:45.933Z,98508.16
2022-08-03T09:34:16.010Z,98511.91
2022-08-03T09:36:46.814Z,98508.97
2022-08-03T09:39:17.230Z,98499.19
2022-08-03T09:41:49.356Z,98502.50
2022-08-03T09:44:25.157Z,98503.22
2022-08-03T09:46:57.214Z,98502.69
2022-08-03T09:49:26.173Z,98500.69
2022-08-03T09:52:33.283Z,98501.38
2022-08-03T09:54:44.352Z,98497.53
2022-08-03T09:57:24.598Z,98509.16
2022-08-03T10:00:02.999Z,98510.94
2022-08-03T10:02:32.739Z,98512.44
2022-08-03T10:05:01.159Z,98502.28
2022-08-03T10:07:29.222Z,98518.56
2022-08-03T10:10:29.878Z,98522.84
2022-08-03T10:12:50.002Z,98523.69
2022-08-03T10:16:22.547Z,98516.28
2022-08-03T10:18:07.534Z,98512.94
2022-08-03T10:20:39.435Z,98503.22
2022-08-03T10:23:09.458Z,98497.81
2022-08-03T10:25:39.379Z,98484.94
2022-08-03T10:28:09.540Z,98481.63
2022-08-03T10:30:39.249Z,98473.50
2022-08-03T10:33:49.256Z,98481.63
2022-08-03T10:36:01.422Z,98486.94
2022-08-03T10:38:31.542Z,98489.00
2022-08-03T10:41:00.666Z,98497.22
2022-08-03T10:43:35.762Z,98504.56
2022-08-03T10:46:06.502Z,98492.00
2022-08-03T10:48:35.972Z,98487.84
2022-08-03T10:51:04.909Z,98471.25
2022-08-03T10:53:37.675Z,98465.75
2022-08-03T10:56:28.636Z,98469.03
2022-08-03T10:59:14.626Z,98472.78
2022-08-03T11:02:00.321Z,98463.88
2022-08-03T11:04:30.310Z,98464.84
2022-08-03T11:07:21.730Z,98465.00
2022-08-03T11:09:51.627Z,98471.28
2022-08-03T11:12:30.438Z,98460.25
2022-08-03T11:15:04.117Z,98457.88
2022-08-03T11:17:33.866Z,98462.94
2022-08-03T11:20:15.285Z,98454.13
2022-08-03T11:22:50.962Z,98465.91
2022-08-03T11:25:53.779Z,98461.69
2022-08-03T11:28:29.008Z,98460.22
2022-08-03T11:31:53.682Z,98457.28
2022-08-03T11:34:22.074Z,98465.88
2022-08-03T11:37:28.799Z,98460.34
2022-08-03T11:40:02.773Z,98461.63
2022-08-03T11:42:41.661Z,98451.66
2022-08-03T11:45:11.206Z,98455.16
2022-08-03T11:47:51.092Z,98446.22
2022-08-03T11:50:20.226Z,98443.81
2022-08-03T11:52:48.879Z,98442.09
2022-08-03T11:55:20.559Z,98436.38
2022-08-03T11:59:10.766Z,98433.06
2022-08-03T12:00:37.710Z,98431.88
2022-08-03T12:03:10.870Z,98428.88
2022-08-03T12:05:41.600Z,98426.75
2022-08-03T12:08:30.918Z,98429.59
2022-08-03T12:11:00.661Z,98424.84
2022-08-03T12:14:44.706Z,98421.88
2022-08-03T12:16:28.831Z,98426.81
2022-08-03T12:19:00.205Z,98415.44
2022-08-03T12:21:28.737Z,98423.00
2022-08-03T12:24:01.008Z,98418.81
2022-08-03T12:26:29.834Z,98417.88
2022-08-03T12:28:58.337Z,98414.13
2022-08-03T12:31:26.849Z,98414.28
2022-08-03T12:34:02.995Z,98420.50
2022-08-03T12:36:32.635Z,98417.00
2022-08-03T12:39:02.519Z,98416.66
2022-08-03T12:41:34.221Z,98419.72
2022-08-03T12:44:04.250Z,98423.75
2022-08-03T12:46:36.206Z,98420.88
2022-08-03T12:49:07.986Z,98421.56
2022-08-03T12:51:38.462Z,98412.78
2022-08-03T12:54:07.282Z,98410.59
2022-08-03T12:56:35.816Z,98410.47
2022-08-03T12:59:24.904Z,98404.41
2022-08-03T13:02:01.383Z,98414.88
2022-08-03T13:04:36.601Z,98404.09
2022-08-03T13:07:06.621Z,98413.91
2022-08-03T13:09:43.628Z,98406.91
2022-08-03T13:12:13.633Z,98415.53
2022-08-03T13:14:42.245Z,98410.72
2022-08-03T13:17:10.464Z,98412.09
2022-08-03T13:19:41.106Z,98415.16
2022-08-03T13:22:13.396Z,98405.81
2022-08-03T13:24:42.004Z,98407.28
2022-08-03T13:28:00.949Z,98412.41
2022-08-03T13:29:58.623Z,98410.44
2022-08-03T13:32:26.888Z,98403.16
2022-08-03T13:34:56.321Z,98412.50
2022-08-03T13:37:24.924Z,98406.88
2022-08-03T13:39:58.956Z,98402.75
2022-08-03T13:42:30.354Z,98406.91
2022-08-03T13:44:58.790Z,98400.41
2022-08-03T13:47:27.311Z,98407.03
2022-08-03T13:50:00.947Z,98403.63
2022-08-03T13:52:32.150Z,98409.63
2022-08-03T13:55:00.767Z,98401.69
2022-08-03T13:58:04.319Z,98393.38
2022-08-03T14:00:26.391Z,98398.63
2022-08-03T14:03:16.384Z,98395.63
2022-08-03T14:05:46.105Z,98401.00
2022-08-03T14:08:14.178Z,98395.31
2022-08-03T14:10:43.647Z,98393.13
2022-08-03T14:13:12.536Z,98391.44
2022-08-03T14:15:49.789Z,98390.31
2022-08-03T14:18:28.384Z,98389.53
2022-08-03T14:21:07.380Z,98390.78
2022-08-03T14:23:36.901Z,98391.69
2022-08-03T14:26:05.103Z,98386.63
2022-08-03T14:28:33.218Z,98383.00
2022-08-03T14:31:01.986Z,98382.19
2022-08-03T14:33:30.187Z,98388.13
2022-08-03T14:35:58.373Z,98379.59
2022-08-03T14:38:28.434Z,98377.44
2022-08-03T14:40:56.511Z,98373.78
2022-08-03T14:43:24.877Z,98374.94
2022-08-03T14:45:54.263Z,98366.47
2022-08-03T14:50:33.284Z,98369.09
2022-08-03T14:51:11.727Z,98360.31
2022-08-03T14:53:41.835Z,98361.88
2022-08-03T14:56:10.951Z,98367.25
2022-08-03T14:58:39.631Z,98362.25
2022-08-03T15:02:05.576Z,98367.88
2022-08-03T15:03:57.044Z,98365.38
2022-08-03T15:06:25.357Z,98365.38
2022-08-03T15:09:21.674Z,98364.66
2022-08-03T15:11:43.794Z,98368.22
2022-08-03T15:14:13.548Z,98360.47
2022-08-03T15:16:43.205Z,98366.84
2022-08-03T15:20:02.235Z,98360.44
2022-08-03T15:22:01.016Z,98351.44
2022-08-03T15:24:31.984Z,98360.34
2022-08-03T15:27:00.204Z,98342.78
2022-08-03T15:30:08.968Z,98341.19
2022-08-03T15:32:16.886Z,98351.22
2022-08-03T15:34:50.743Z,98353.88
2022-08-03T15:37:20.874Z,98349.78
2022-08-03T15:39:59.887Z,98351.31
2022-08-03T15:42:30.448Z,98348.53
2022-08-03T15:44:58.558Z,98347.00
2022-08-03T15:47:26.743Z,98347.63
2022-08-03T15:49:55.124Z,98337.50
2022-08-03T15:52:23.275Z,98349.47
2022-08-03T15:54:52.726Z,98342.63
2022-08-03T15:57:21.407Z,98340.25
2022-08-03T15:59:49.682Z,98347.03
2022-08-03T16:02:18.002Z,98338.84
2022-08-03T16:04:46.243Z,98333.19
2022-08-03T16:07:15.903Z,98341.19
2022-08-03T16:09:44.414Z,98332.91
2022-08-03T16:12:16.350Z,98339.38
2022-08-03T16:14:52.767Z,98327.75
2022-08-03T16:17:22.431Z,98321.31
2022-08-03T16:19:50.886Z,98325.28
2022-08-03T16:22:23.903Z,98320.31
2022-08-03T16:24:52.190Z,98322.00
2022-08-03T16:27:56.843Z,98320.09
2022-08-03T16:30:11.114Z,98316.78
2022-08-03T16:32:39.961Z,98309.22
2022-08-03T16:35:09.074Z,98322.53
2022-08-03T16:37:56.066Z,98310.31
2022-08-03T16:40:25.994Z,98311.13
2022-08-03T16:42:56.071Z,98315.44
2022-08-03T16:45:24.250Z,98314.31
2022-08-03T16:48:06.018Z,98314.47
2022-08-03T16:50:36.647Z,98324.06
2022-08-03T16:53:09.215Z,98325.78
2022-08-03T16:55:43.489Z,98326.25
2022-08-03T16:58:34.617Z,98325.03
2022-08-03T17:01:21.754Z,98328.75
2022-08-03T17:04:01.252Z,98324.78
2022-08-03T17:06:34.372Z,98323.44
2022-08-03T17:09:09.088Z,98329.13
2022-08-03T17:11:44.042Z,98330.09
2022-08-03T17:14:17.250Z,98340.38
2022-08-03T17:16:54.162Z,98340.47
2022-08-03T17:19:24.507Z,98337.63
2022-08-03T17:21:57.986Z,98333.72
2022-08-03T17:24:30.146Z,98336.19
2022-08-03T17:27:02.382Z,98334.59
2022-08-03T17:29:33.835Z,98340.63
2022-08-03T17:32:10.107Z,98342.91
2022-08-03T17:34:39.794Z,98344.09
2022-08-03T17:37:27.312Z,98344.22
2022-08-03T17:39:59.160Z,98350.47
2022-08-03T17:42:31.910Z,98350.47
2022-08-03T17:45:03.983Z,98350.47
2022-08-03T17:47:42.497Z,98362.59
2022-08-03T17:50:25.077Z,98355.69
2022-08-03T17:53:07.496Z,98361.97
2022-08-03T17:55:58.552Z,98356.31
2022-08-03T17:58:43.935Z,98358.50
2022-08-03T18:02:00.650Z,98365.00
2022-08-03T18:04:29.725Z,98354.00
2022-08-03T18:07:11.286Z,98369.41
2022-08-03T18:10:06.706Z,98364.84
2022-08-03T18:12:41.486Z,98362.94
2022-08-03T18:15:21.203Z,98364.47
2022-08-03T18:18:01.984Z,98365.94
2022-08-03T18:20:40.957Z,98371.56
2022-08-03T18:23:24.818Z,98370.97
2022-08-03T18:26:01.686Z,98359.44
2022-08-03T18:28:30.599Z,98371.84
2022-08-03T18:31:00.617Z,98383.06
2022-08-03T18:34:17.623Z,98371.41
2022-08-03T18:36:29.971Z,98375.84
2022-08-03T18:39:01.674Z,98385.22
2022-08-03T18:41:32.346Z,98381.53
2022-08-03T18:44:08.427Z,98391.28
2022-08-03T18:46:48.451Z,98379.94
2022-08-03T18:49:29.230Z,98397.09
2022-08-03T18:52:04.760Z,98390.38
2022-08-03T18:55:02.760Z,98398.66
2022-08-03T18:57:41.121Z,98408.44
2022-08-03T19:00:14.272Z,98400.06
2022-08-03T19:02:48.959Z,98416.06
2022-08-03T19:05:21.726Z,98411.50
2022-08-03T19:07:58.150Z,98414.03
2022-08-03T19:10:32.152Z,98420.22
2022-08-03T19:13:05.131Z,98415.38
2022-08-03T19:15:51.043Z,98420.94
2022-08-03T19:18:22.012Z,98418.16
2022-08-03T19:20:54.807Z,98422.53
2022-08-03T19:23:25.947Z,98423.75
2022-08-03T19:26:00.515Z,98423.53
2022-08-03T19:28:29.895Z,98424.66
2022-08-03T19:31:02.616Z,98417.31
2022-08-03T19:33:57.455Z,98413.81
2022-08-03T19:36:26.614Z,98422.22
2022-08-03T19:38:58.498Z,98414.75
2022-08-03T19:41:31.055Z,98422.09
2022-08-03T19:44:11.772Z,98429.28
2022-08-03T19:46:45.450Z,98421.13
2022-08-03T19:49:16.802Z,98424.56
2022-08-03T19:52:02.101Z,98427.53
2022-08-03T19:54:45.483Z,98417.88
2022-08-03T19:57:24.933Z,98418.75
2022-08-03T19:59:55.042Z,98416.50
2022-08-03T20:02:26.615Z,98418.34
2022-08-03T20:04:57.162Z,98411.44
2022-08-03T20:07:27.574Z,98419.38
2022-08-03T20:09:57.006Z,98414.63
2022-08-03T20:12:27.807Z,98415.53
2022-08-03T20:14:57.304Z,98408.47
2022-08-03T20:17:56.147Z,98418.22
2022-08-03T20:20:14.708Z,98415.44
2022-08-03T20:22:47.781Z,98409.97
2022-08-03T20:25:21.055Z,98415.44
2022-08-03T20:28:06.852Z,98416.16
2022-08-03T20:30:43.760Z,98413.31
2022-08-03T20:33:12.398Z,98414.25
2022-08-03T20:35:49.734Z,98416.22
2022-08-03T20:38:20.148Z,98415.00
2022-08-03T20:40:56.497Z,98412.38
2022-08-03T20:43:27.469Z,98417.22
2022-08-03T20:45:58.522Z,98415.53
2022-08-03T20:48:45.139Z,98422.78
2022-08-03T20:51:19.851Z,98432.44
2022-08-03T20:53:56.981Z,98421.50
2022-08-03T20:56:31.995Z,98426.81
2022-08-03T20:59:04.181Z,98429.28
2022-08-03T21:04:21.166Z,98420.06
2022-08-03T21:06:53.100Z,98419.63
2022-08-03T21:09:33.502Z,98426.47
2022-08-03T21:12:09.568Z,98434.94
2022-08-03T21:13:14.022Z,98422.06
2022-08-03T21:14:40.778Z,98427.69
2022-08-03T21:17:19.446Z,98423.69
2022-08-03T21:19:58.765Z,98419.69
2022-08-03T21:22:27.293Z,98426.13
2022-08-03T21:24:57.984Z,98435.78
2022-08-03T21:27:26.562Z,98437.81
2022-08-03T21:29:54.747Z,98448.19
2022-08-03T21:32:33.128Z,98435.38
2022-08-03T21:35:02.396Z,98438.50
2022-08-03T21:37:30.645Z,98441.69
2022-08-03T21:40:00.497Z,98438.56
2022-08-03T21:42:29.229Z,98444.81
2022-08-03T21:44:57.512Z,98452.50
2022-08-03T21:47:26.035Z,98450.94
2022-08-03T21:50:08.354Z,98447.00
2022-08-03T21:52:42.357Z,98445.41
2022-08-03T21:55:18.359Z,98456.63
2022-08-03T21:57:53.470Z,98447.78
2022-08-03T22:00:23.282Z,98447.69
2022-08-03T22:02:54.622Z,98447.31
2022-08-03T22:05:28.983Z,98445.22
2022-08-03T22:08:11.411Z,98447.59
2022-08-03T22:10:41.076Z,98445.31
2022-08-03T22:13:09.411Z,98442.78
2022-08-03T22:15:37.525Z,98450.00
2022-08-03T22:18:06.375Z,98448.03
2022-08-03T22:20:34.644Z,98448.38
2022-08-03T22:23:04.441Z,98452.53
2022-08-03T22:25:34.787Z,98443.69
2022-08-03T22:28:06.779Z,98444.13
2022-08-03T22:30:37.726Z,98456.56
2022-08-03T22:33:11.677Z,98450.03
2022-08-03T22:35:44.208Z,98453.22
2022-08-03T22:38:17.062Z,98457.97
2022-08-03T22:40:47.980Z,98456.81
2022-08-03T22:43:17.727Z,98455.59
2022-08-03T22:46:09.742Z,98456.16
2022-08-03T22:48:36.648Z,98451.34
2022-08-03T22:51:10.194Z,98445.69
2022-08-03T22:53:40.000Z,98449.88
2022-08-03T22:56:08.753Z,98444.84
2022-08-03T22:58:38.343Z,98447.69
2022-08-03T23:01:08.894Z,98446.47
2022-08-03T23:03:59.763Z,98448.94
2022-08-03T23:06:28.572Z,98448.13
2022-08-03T23:08:56.968Z,98445.00
2022-08-03T23:11:25.332Z,98448.66
2022-08-03T23:13:56.624Z,98442.50
2022-08-03T23:16:29.151Z,98442.31
2022-08-03T23:18:59.393Z,98453.19
2022-08-03T23:21:51.271Z,98444.81
2022-08-03T23:24:29.405Z,98440.75
2022-08-03T23:26:58.811Z,98441.41
2022-08-03T23:29:30.410Z,98438.44
2022-08-03T23:31:58.446Z,98436.78
2022-08-03T23:34:44.992Z,98431.06
2022-08-03T23:37:14.906Z,98435.13
2022-08-03T23:39:47.178Z,98436.03
2022-08-03T23:42:18.269Z,98434.34
2022-08-03T23:44:48.174Z,98426.34
2022-08-03T23:47:16.431Z,98434.03
2022-08-03T23:49:45.250Z,98425.63
2022-08-03T23:52:18.667Z,98426.38
2022-08-03T23:54:55.477Z,98432.81
2022-08-03T23:57:29.723Z,98434.84
